createdAt,value
2019-03-23T00:01:53.979Z,99657.57
2019-03-23T00:04:25.400Z,99659.94
2019-03-23T00:07:14.127Z,99659.37
2019-03-23T00:09:43.758Z,99656.98
2019-03-23T00:12:13.240Z,99662.66
2019-03-23T00:14:42.801Z,99665.37
2019-03-23T00:17:12.283Z,99663.33
2019-03-23T00:19:41.739Z,99661.70
2019-03-23T00:22:11.249Z,99659.63
2019-03-23T00:24:40.725Z,99659.52
2019-03-23T00:27:10.191Z,99661.81
2019-03-23T00:29:42.440Z,99659.70
2019-03-23T00:32:12.069Z,99659.88
2019-03-23T00:34:41.539Z,99666.70
2019-03-23T00:37:11.214Z,99672.79
2019-03-23T00:39:40.675Z,99670.95
2019-03-23T00:42:10.127Z,99676.30
2019-03-23T00:44:39.604Z,99673.83
2019-03-23T00:47:09.073Z,99676.00
2019-03-23T00:49:38.552Z,99672.53
2019-03-23T00:52:08.089Z,99677.50
2019-03-23T00:54:37.545Z,99676.22
2019-03-23T00:57:08.809Z,99675.40
2019-03-23T00:59:38.330Z,99674.17
2019-03-23T01:02:07.780Z,99676.00
2019-03-23T01:04:37.266Z,99672.45
2019-03-23T01:07:06.837Z,99671.38
2019-03-23T01:09:36.287Z,99668.48
2019-03-23T01:12:06.005Z,99667.17
2019-03-23T01:14:35.511Z,99669.86
2019-03-23T01:17:05.035Z,99674.66
2019-03-23T01:19:43.454Z,99668.41
2019-03-23T01:22:12.937Z,99667.57
2019-03-23T01:24:42.390Z,99669.53
2019-03-23T01:27:11.869Z,99671.55
2019-03-23T01:29:41.343Z,99673.55
2019-03-23T01:32:10.836Z,99673.41
2019-03-23T01:34:40.319Z,99680.11
2019-03-23T01:37:09.820Z,99676.82
2019-03-23T01:39:39.269Z,99673.65
2019-03-23T01:42:08.795Z,99671.95
2019-03-23T01:44:57.551Z,99673.34
2019-03-23T01:47:27.069Z,99671.44
2019-03-23T01:49:56.566Z,99667.86
2019-03-23T01:52:26.039Z,99668.72
2019-03-23T01:54:55.984Z,99667.73
2019-03-23T01:57:26.515Z,99667.19
2019-03-23T01:59:55.996Z,99670.77
2019-03-23T02:02:25.490Z,99669.73
2019-03-23T02:04:55.022Z,99667.66
2019-03-23T02:07:24.484Z,99663.22
2019-03-23T02:09:54.085Z,99660.48
2019-03-23T02:12:23.712Z,99666.22
2019-03-23T02:14:53.261Z,99660.75
2019-03-23T02:17:22.763Z,99662.89
2019-03-23T02:19:52.227Z,99666.28
2019-03-23T02:22:21.689Z,99671.22
2019-03-23T02:24:51.213Z,99667.73
2019-03-23T02:27:20.690Z,99668.16
2019-03-23T02:29:50.141Z,99676.32
2019-03-23T02:32:19.683Z,99670.32
2019-03-23T02:34:49.165Z,99672.52
2019-03-23T02:37:27.604Z,99670.31
2019-03-23T02:39:49.899Z,99665.47
2019-03-23T02:42:19.383Z,99664.03
2019-03-23T02:44:48.861Z,99666.39
2019-03-23T02:47:18.422Z,99664.09
2019-03-23T02:49:47.902Z,99662.36
2019-03-23T02:52:17.345Z,99658.83
2019-03-23T02:54:46.839Z,99661.46
2019-03-23T02:57:16.333Z,99661.57
2019-03-23T02:59:45.853Z,99664.94
2019-03-23T03:02:15.587Z,99664.14
2019-03-23T03:05:07.114Z,99668.38
2019-03-23T03:07:42.511Z,99664.94
2019-03-23T03:10:10.907Z,99665.69
2019-03-23T03:12:40.455Z,99665.31
2019-03-23T03:15:11.546Z,99661.08
2019-03-23T03:17:41.023Z,99665.54
2019-03-23T03:20:12.020Z,99665.09
2019-03-23T03:22:41.530Z,99664.73
2019-03-23T03:25:11.472Z,99671.28
2019-03-23T03:27:40.919Z,99670.53
2019-03-23T03:30:12.509Z,99672.20
2019-03-23T03:32:41.989Z,99669.09
2019-03-23T03:35:12.233Z,99672.89
2019-03-23T03:37:55.414Z,99675.28
2019-03-23T03:40:13.214Z,99684.98
2019-03-23T03:42:42.673Z,99684.75
2019-03-23T03:45:16.701Z,99680.77
2019-03-23T03:47:46.186Z,99680.34
2019-03-23T03:50:15.687Z,99682.91
2019-03-23T03:52:45.268Z,99681.98
2019-03-23T03:55:14.768Z,99683.88
2019-03-23T03:57:44.243Z,99681.06
2019-03-23T04:00:15.482Z,99680.90
2019-03-23T04:02:44.940Z,99681.30
2019-03-23T04:05:14.481Z,99681.04
2019-03-23T04:07:43.956Z,99676.59
2019-03-23T04:10:13.684Z,99680.32
2019-03-23T04:12:43.145Z,99680.19
2019-03-23T04:15:13.068Z,99680.27
2019-03-23T04:17:42.575Z,99673.30
2019-03-23T04:20:12.821Z,99673.27
2019-03-23T04:22:42.350Z,99676.90
2019-03-23T04:25:12.320Z,99679.65
2019-03-23T04:27:41.822Z,99678.25
2019-03-23T04:30:12.846Z,99679.42
2019-03-23T04:32:42.482Z,99677.40
2019-03-23T04:35:12.121Z,99681.43
2019-03-23T04:37:42.029Z,99682.48
2019-03-23T04:40:12.678Z,99684.89
2019-03-23T04:42:42.480Z,99687.48
2019-03-23T04:45:12.885Z,99682.36
2019-03-23T04:47:42.373Z,99680.30
2019-03-23T04:50:13.932Z,99682.66
2019-03-23T04:52:43.459Z,99680.69
2019-03-23T04:55:14.524Z,99682.43
2019-03-23T04:57:43.983Z,99684.04
2019-03-23T05:00:17.151Z,99677.25
2019-03-23T05:02:47.260Z,99680.80
2019-03-23T05:05:16.963Z,99688.02
2019-03-23T05:07:46.549Z,99690.31
2019-03-23T05:10:17.338Z,99694.23
2019-03-23T05:12:46.829Z,99692.08
2019-03-23T05:15:16.472Z,99683.41
2019-03-23T05:17:45.956Z,99684.37
2019-03-23T05:20:19.949Z,99688.09
2019-03-23T05:22:49.823Z,99688.55
2019-03-23T05:25:38.621Z,99687.64
2019-03-23T05:28:08.126Z,99690.52
2019-03-23T05:30:37.614Z,99694.14
2019-03-23T05:33:07.272Z,99693.20
2019-03-23T05:35:36.755Z,99690.48
2019-03-23T05:38:06.250Z,99694.84
2019-03-23T05:40:35.709Z,99699.66
2019-03-23T05:43:24.551Z,99702.92
2019-03-23T05:45:54.016Z,99702.16
2019-03-23T05:48:23.501Z,99699.92
2019-03-23T05:50:53.016Z,99706.22
2019-03-23T05:53:28.676Z,99704.87
2019-03-23T05:55:58.132Z,99709.23
2019-03-23T05:58:46.973Z,99718.47
2019-03-23T06:01:16.599Z,99720.87
2019-03-23T06:03:46.060Z,99722.72
2019-03-23T06:06:15.585Z,99719.51
2019-03-23T06:08:54.525Z,99724.42
2019-03-23T06:11:16.257Z,99727.77
2019-03-23T06:13:45.769Z,99721.91
2019-03-23T06:16:15.224Z,99716.75
2019-03-23T06:18:44.689Z,99730.89
2019-03-23T06:21:14.189Z,99726.30
2019-03-23T06:23:43.684Z,99724.66
2019-03-23T06:26:13.144Z,99728.03
2019-03-23T06:28:42.652Z,99729.95
2019-03-23T06:31:12.206Z,99730.95
2019-03-23T06:33:41.673Z,99734.16
2019-03-23T06:36:11.517Z,99732.97
2019-03-23T06:38:41.000Z,99728.28
2019-03-23T06:41:10.455Z,99719.54
2019-03-23T06:43:39.960Z,99711.23
2019-03-23T06:46:09.443Z,99708.94
2019-03-23T06:48:38.917Z,99701.13
2019-03-23T06:51:08.547Z,99691.19
2019-03-23T06:53:38.028Z,99673.70
2019-03-23T06:56:07.740Z,99667.09
2019-03-23T06:58:38.642Z,99663.61
2019-03-23T07:01:08.416Z,99662.02
2019-03-23T07:03:38.199Z,99677.43
2019-03-23T07:06:07.789Z,99672.09
2019-03-23T07:08:37.246Z,99665.20
2019-03-23T07:11:06.752Z,99662.89
2019-03-23T07:13:36.260Z,99671.26
2019-03-23T07:16:05.856Z,99662.61
2019-03-23T07:18:35.355Z,99660.38
2019-03-23T07:21:04.838Z,99655.48
2019-03-23T07:23:34.346Z,99657.29
2019-03-23T07:26:03.808Z,99655.09
2019-03-23T07:28:33.327Z,99656.86
2019-03-23T07:31:02.829Z,99657.34
2019-03-23T07:33:32.315Z,99653.80
2019-03-23T07:36:01.823Z,99646.48
2019-03-23T07:38:31.314Z,99651.02
2019-03-23T07:41:00.817Z,99654.27
2019-03-23T07:43:30.474Z,99648.14
2019-03-23T07:46:19.260Z,99638.78
2019-03-23T07:48:48.785Z,99634.67
2019-03-23T07:51:18.253Z,99627.20
2019-03-23T07:53:47.757Z,99629.34
2019-03-23T07:56:17.238Z,99632.33
2019-03-23T07:58:46.908Z,99630.81
2019-03-23T08:01:16.399Z,99630.10
2019-03-23T08:03:47.074Z,99620.13
2019-03-23T08:06:28.292Z,99621.67
2019-03-23T08:08:57.831Z,99614.47
2019-03-23T08:11:27.301Z,99632.94
2019-03-23T08:13:56.779Z,99627.87
2019-03-23T08:16:26.618Z,99659.32
2019-03-23T08:18:56.191Z,99678.70
2019-03-23T08:21:25.655Z,99653.39
2019-03-23T08:23:55.183Z,99636.91
2019-03-23T08:26:26.173Z,99644.83
2019-03-23T08:28:55.665Z,99627.97
2019-03-23T08:31:25.199Z,99628.23
2019-03-23T08:33:54.675Z,99623.60
2019-03-23T08:36:24.176Z,99663.69
2019-03-23T08:38:53.719Z,99647.62
2019-03-23T08:41:23.229Z,99643.62
2019-03-23T08:43:52.729Z,99622.27
2019-03-23T08:46:22.229Z,99629.49
2019-03-23T08:48:51.739Z,99615.44
2019-03-23T08:51:21.211Z,99609.55
2019-03-23T08:53:50.935Z,99607.64
2019-03-23T08:56:20.523Z,99616.12
2019-03-23T08:59:09.323Z,99620.09
2019-03-23T09:01:38.838Z,99651.67
2019-03-23T09:04:08.714Z,99635.27
2019-03-23T09:06:38.224Z,99647.34
2019-03-23T09:09:08.343Z,99651.32
2019-03-23T09:11:37.873Z,99631.51
2019-03-23T09:14:07.353Z,99627.69
2019-03-23T09:16:36.894Z,99623.53
2019-03-23T09:19:06.554Z,99619.91
2019-03-23T09:21:55.543Z,99627.79
2019-03-23T09:24:25.025Z,99644.66
2019-03-23T09:26:54.535Z,99636.69
2019-03-23T09:29:24.320Z,99622.27
2019-03-23T09:31:53.809Z,99627.00
2019-03-23T09:34:23.303Z,99643.30
2019-03-23T09:36:52.813Z,99634.91
2019-03-23T09:39:22.304Z,99618.59
2019-03-23T09:41:51.875Z,99614.03
2019-03-23T09:44:21.456Z,99619.41
2019-03-23T09:46:50.923Z,99625.97
2019-03-23T09:49:22.091Z,99617.15
2019-03-23T09:52:11.008Z,99637.48
2019-03-23T09:54:59.819Z,99644.92
2019-03-23T09:57:29.332Z,99624.52
2019-03-23T09:59:58.804Z,99622.83
2019-03-23T10:02:28.278Z,99615.77
2019-03-23T10:04:58.128Z,99601.73
2019-03-23T10:07:27.614Z,99591.50
2019-03-23T10:10:21.787Z,99593.24
2019-03-23T10:12:47.679Z,99589.17
2019-03-23T10:15:17.156Z,99587.00
2019-03-23T10:17:46.654Z,99589.36
2019-03-23T10:20:16.181Z,99585.62
2019-03-23T10:22:45.660Z,99575.97
2019-03-23T10:25:15.143Z,99571.34
2019-03-23T10:27:44.647Z,99571.32
2019-03-23T10:30:33.816Z,99585.11
2019-03-23T10:33:03.282Z,99593.86
2019-03-23T10:35:32.894Z,99617.70
2019-03-23T10:38:02.418Z,99596.27
2019-03-23T10:40:32.977Z,99582.98
2019-03-23T10:43:02.553Z,99583.55
2019-03-23T10:45:32.143Z,99574.26
2019-03-23T10:48:01.649Z,99577.86
2019-03-23T10:50:31.174Z,99580.19
2019-03-23T10:53:00.692Z,99587.84
2019-03-23T10:55:30.163Z,99571.29
2019-03-23T10:58:08.500Z,99567.75
2019-03-23T11:00:57.309Z,99566.23
2019-03-23T11:03:26.856Z,99565.38
2019-03-23T11:05:56.683Z,99566.20
2019-03-23T11:08:38.768Z,99555.67
2019-03-23T11:11:09.949Z,99563.88
2019-03-23T11:13:39.412Z,99561.97
2019-03-23T11:16:08.917Z,99566.20
2019-03-23T11:18:38.426Z,99552.83
2019-03-23T11:21:07.899Z,99555.92
2019-03-23T11:23:37.390Z,99561.30
2019-03-23T11:26:08.376Z,99567.82
2019-03-23T11:28:57.250Z,99560.34
2019-03-23T11:31:26.783Z,99559.45
2019-03-23T11:33:56.254Z,99563.44
2019-03-23T11:36:45.103Z,99572.70
2019-03-23T11:39:14.608Z,99576.70
2019-03-23T11:42:03.592Z,99588.91
2019-03-23T11:44:33.091Z,99578.19
2019-03-23T11:47:21.929Z,99567.50
2019-03-23T11:49:51.407Z,99566.41
2019-03-23T11:52:20.882Z,99565.06
2019-03-23T11:54:50.390Z,99562.36
2019-03-23T11:57:19.866Z,99574.86
2019-03-23T11:59:49.339Z,99568.77
2019-03-23T12:02:18.842Z,99562.48
2019-03-23T12:04:48.474Z,99575.95
2019-03-23T12:07:18.055Z,99576.16
2019-03-23T12:09:47.602Z,99571.52
2019-03-23T12:12:17.107Z,99563.33
2019-03-23T12:14:46.632Z,99567.11
2019-03-23T12:17:16.172Z,99558.72
2019-03-23T12:19:45.608Z,99564.25
2019-03-23T12:22:15.087Z,99553.98
2019-03-23T12:24:44.607Z,99557.20
2019-03-23T12:27:14.118Z,99559.02
2019-03-23T12:29:43.621Z,99545.29
2019-03-23T12:32:13.209Z,99559.06
2019-03-23T12:34:42.747Z,99554.60
2019-03-23T12:37:31.608Z,99548.20
2019-03-23T12:40:01.095Z,99537.66
2019-03-23T12:42:30.581Z,99537.36
2019-03-23T12:45:00.299Z,99544.92
2019-03-23T12:47:29.847Z,99542.45
2019-03-23T12:49:59.319Z,99546.38
2019-03-23T12:52:29.255Z,99534.98
2019-03-23T12:54:58.723Z,99533.81
2019-03-23T12:57:28.215Z,99549.23
2019-03-23T12:59:57.770Z,99557.42
2019-03-23T13:02:46.572Z,99551.16
2019-03-23T13:05:16.067Z,99541.52
2019-03-23T13:07:46.545Z,99544.36
2019-03-23T13:10:16.578Z,99525.03
2019-03-23T13:12:46.049Z,99515.16
2019-03-23T13:15:17.066Z,99516.97
2019-03-23T13:17:46.710Z,99513.42
2019-03-23T13:20:16.735Z,99519.21
2019-03-23T13:23:05.489Z,99515.29
2019-03-23T13:25:35.432Z,99511.66
2019-03-23T13:28:05.012Z,99504.76
2019-03-23T13:30:34.516Z,99500.42
2019-03-23T13:33:04.024Z,99502.62
2019-03-23T13:35:33.527Z,99506.09
2019-03-23T13:38:03.008Z,99507.55
2019-03-23T13:40:32.840Z,99496.89
2019-03-23T13:43:03.600Z,99491.79
2019-03-23T13:45:42.364Z,99481.33
2019-03-23T13:48:06.047Z,99480.38
2019-03-23T13:50:35.510Z,99477.19
2019-03-23T13:53:24.325Z,99480.55
2019-03-23T13:55:53.852Z,99483.81
2019-03-23T13:58:23.339Z,99481.92
2019-03-23T14:00:52.876Z,99481.40
2019-03-23T14:03:22.345Z,99481.97
2019-03-23T14:05:51.863Z,99472.83
2019-03-23T14:08:21.566Z,99463.69
2019-03-23T14:10:51.191Z,99471.72
2019-03-23T14:13:20.672Z,99469.30
2019-03-23T14:15:50.203Z,99458.91
2019-03-23T14:18:19.686Z,99465.02
2019-03-23T14:20:49.142Z,99479.57
2019-03-23T14:23:18.664Z,99468.09
2019-03-23T14:25:48.142Z,99472.42
2019-03-23T14:28:17.645Z,99459.28
2019-03-23T14:30:47.295Z,99457.30
2019-03-23T14:33:16.787Z,99458.69
2019-03-23T14:35:46.272Z,99475.83
2019-03-23T14:38:15.837Z,99475.83
2019-03-23T14:40:45.315Z,99474.11
2019-03-23T14:43:14.823Z,99473.18
2019-03-23T14:45:44.347Z,99466.45
2019-03-23T14:48:13.819Z,99468.56
2019-03-23T14:50:43.295Z,99469.58
2019-03-23T14:53:12.821Z,99477.77
2019-03-23T14:55:42.324Z,99470.40
2019-03-23T14:58:11.785Z,99473.02
2019-03-23T15:00:41.354Z,99467.83
2019-03-23T15:03:10.847Z,99473.00
2019-03-23T15:05:40.323Z,99469.89
2019-03-23T15:08:09.989Z,99475.22
2019-03-23T15:10:39.450Z,99469.30
2019-03-23T15:13:08.930Z,99473.36
2019-03-23T15:15:38.728Z,99469.75
2019-03-23T15:18:08.217Z,99467.56
2019-03-23T15:20:37.690Z,99466.81
2019-03-23T15:23:07.414Z,99469.45
2019-03-23T15:25:36.911Z,99475.36
2019-03-23T15:28:06.392Z,99461.17
2019-03-23T15:30:35.985Z,99466.98
2019-03-23T15:33:05.822Z,99470.04
2019-03-23T15:35:35.334Z,99472.55
2019-03-23T15:38:04.999Z,99463.95
2019-03-23T15:40:34.497Z,99462.03
2019-03-23T15:43:03.999Z,99464.44
2019-03-23T15:45:33.510Z,99467.05
2019-03-23T15:48:03.010Z,99475.80
2019-03-23T15:50:32.480Z,99476.17
2019-03-23T15:53:02.089Z,99480.13
2019-03-23T15:55:31.580Z,99479.80
2019-03-23T15:58:01.080Z,99478.84
2019-03-23T16:00:30.581Z,99471.89
2019-03-23T16:03:00.042Z,99491.94
2019-03-23T16:05:29.565Z,99491.55
2019-03-23T16:07:59.034Z,99493.75
2019-03-23T16:10:28.514Z,99494.48
2019-03-23T16:12:57.990Z,99501.78
2019-03-23T16:15:27.551Z,99500.95
2019-03-23T16:17:57.025Z,99512.08
2019-03-23T16:20:26.524Z,99516.53
2019-03-23T16:22:56.043Z,99508.95
2019-03-23T16:25:25.548Z,99517.24
2019-03-23T16:27:55.083Z,99524.05
2019-03-23T16:30:44.136Z,99410.00
2019-03-23T16:33:13.644Z,99541.97
2019-03-23T16:35:43.118Z,99546.48
2019-03-23T16:38:12.637Z,99550.91
2019-03-23T16:40:42.159Z,99553.53
2019-03-23T16:43:11.681Z,99558.33
2019-03-23T16:45:41.216Z,99562.53
2019-03-23T16:48:10.722Z,99575.23
2019-03-23T16:50:40.213Z,99574.52
2019-03-23T16:53:09.744Z,99577.76
2019-03-23T16:55:39.239Z,99583.98
2019-03-23T16:58:15.796Z,99581.69
2019-03-23T17:00:59.296Z,99582.19
2019-03-23T17:03:28.768Z,99587.98
2019-03-23T17:05:58.249Z,99585.05
2019-03-23T17:08:27.907Z,99586.17
2019-03-23T17:10:57.452Z,99592.11
2019-03-23T17:13:26.948Z,99592.77
2019-03-23T17:15:56.475Z,99598.09
2019-03-23T17:18:25.969Z,99598.47
2019-03-23T17:20:55.433Z,99600.20
2019-03-23T17:23:24.972Z,99607.94
2019-03-23T17:25:56.087Z,99612.67
2019-03-23T17:28:25.586Z,99613.03
2019-03-23T17:30:55.107Z,99616.88
2019-03-23T17:33:24.602Z,99616.27
2019-03-23T17:35:54.107Z,99620.08
2019-03-23T17:38:23.627Z,99631.86
2019-03-23T17:40:53.117Z,99630.72
2019-03-23T17:43:22.622Z,99634.90
2019-03-23T17:45:52.152Z,99637.95
2019-03-23T17:48:23.169Z,99642.80
2019-03-23T17:50:52.707Z,99642.33
2019-03-23T17:53:22.231Z,99646.31
2019-03-23T17:55:51.738Z,99652.86
2019-03-23T17:58:40.702Z,99656.13
2019-03-23T18:01:29.474Z,99656.88
2019-03-23T18:03:58.999Z,99655.73
2019-03-23T18:06:28.459Z,99655.95
2019-03-23T18:08:57.999Z,99656.08
2019-03-23T18:11:27.567Z,99660.41
2019-03-23T18:13:57.429Z,99662.66
2019-03-23T18:16:27.103Z,99670.50
2019-03-23T18:18:56.594Z,99670.20
2019-03-23T18:21:26.078Z,99673.60
2019-03-23T18:23:55.720Z,99676.08
2019-03-23T18:26:25.240Z,99669.98
2019-03-23T18:28:54.710Z,99671.90
2019-03-23T18:31:24.281Z,99672.91
2019-03-23T18:33:53.807Z,99678.89
2019-03-23T18:36:23.385Z,99677.56
2019-03-23T18:38:52.877Z,99678.29
2019-03-23T18:41:22.383Z,99679.11
2019-03-23T18:43:51.875Z,99682.10
2019-03-23T18:46:40.686Z,99685.78
2019-03-23T18:49:10.260Z,99691.25
2019-03-23T18:51:39.729Z,99697.80
2019-03-23T18:54:09.284Z,99703.38
2019-03-23T18:56:38.744Z,99709.70
2019-03-23T18:59:08.248Z,99709.67
2019-03-23T19:01:57.044Z,99602.49
2019-03-23T19:04:26.616Z,99713.38
2019-03-23T19:06:56.084Z,99719.86
2019-03-23T19:09:25.633Z,99722.62
2019-03-23T19:11:55.128Z,99725.94
2019-03-23T19:14:24.631Z,99719.86
2019-03-23T19:16:54.148Z,99723.14
2019-03-23T19:19:23.641Z,99731.10
2019-03-23T19:21:53.131Z,99739.78
2019-03-23T19:24:22.619Z,99739.86
2019-03-23T19:26:52.195Z,99737.48
2019-03-23T19:29:21.680Z,99739.19
2019-03-23T19:31:51.287Z,99743.17
2019-03-23T19:34:20.794Z,99736.16
2019-03-23T19:36:50.260Z,99741.94
2019-03-23T19:39:19.769Z,99741.05
2019-03-23T19:41:49.227Z,99741.77
2019-03-23T19:44:18.698Z,99731.97
2019-03-23T19:46:48.217Z,99725.59
2019-03-23T19:49:17.682Z,99732.26
2019-03-23T19:51:47.191Z,99728.14
2019-03-23T19:54:16.696Z,99728.39
2019-03-23T19:56:48.265Z,99728.98
2019-03-23T19:59:17.733Z,99729.58
2019-03-23T20:01:47.260Z,99724.92
2019-03-23T20:04:16.764Z,99728.13
2019-03-23T20:06:46.265Z,99731.52
2019-03-23T20:09:15.781Z,99731.39
2019-03-23T20:11:45.279Z,99728.75
2019-03-23T20:14:14.753Z,99731.09
2019-03-23T20:16:44.289Z,99733.19
2019-03-23T20:19:14.102Z,99733.19
2019-03-23T20:21:43.579Z,99732.92
2019-03-23T20:24:13.090Z,99731.19
2019-03-23T20:26:42.591Z,99730.56
2019-03-23T20:29:13.604Z,99736.11
2019-03-23T20:31:45.381Z,99741.00
2019-03-23T20:34:33.588Z,99743.88
2019-03-23T20:37:03.090Z,99750.02
2019-03-23T20:39:32.637Z,99759.06
2019-03-23T20:42:01.991Z,99759.17
2019-03-23T20:44:31.503Z,99764.02
2019-03-23T20:47:01.167Z,99759.19
2019-03-23T20:49:30.928Z,99757.44
2019-03-23T20:52:02.261Z,99761.08
2019-03-23T20:54:44.200Z,99763.13
2019-03-23T20:57:23.518Z,99757.44
2019-03-23T20:59:44.896Z,99753.94
2019-03-23T21:02:33.688Z,99751.31
2019-03-23T21:05:03.359Z,99751.23
2019-03-23T21:07:52.318Z,99745.92
2019-03-23T21:10:21.871Z,99744.00
2019-03-23T21:12:51.353Z,99743.73
2019-03-23T21:15:20.838Z,99747.13
2019-03-23T21:17:51.535Z,99740.34
2019-03-23T21:20:33.154Z,99745.39
2019-03-23T21:23:02.603Z,99741.63
2019-03-23T21:25:32.068Z,99740.38
2019-03-23T21:28:01.586Z,99736.46
2019-03-23T21:30:50.355Z,99739.14
2019-03-23T21:33:19.889Z,99737.23
2019-03-23T21:35:49.334Z,99739.27
2019-03-23T21:38:18.838Z,99740.33
2019-03-23T21:40:48.351Z,99733.64
2019-03-23T21:43:17.827Z,99731.76
2019-03-23T21:45:47.311Z,99728.42
2019-03-23T21:48:16.836Z,99729.98
2019-03-23T21:50:47.747Z,99722.97
2019-03-23T21:53:17.481Z,99722.60
2019-03-23T21:55:47.014Z,99721.50
2019-03-23T21:58:16.492Z,99726.30
2019-03-23T22:00:45.950Z,99721.33
2019-03-23T22:03:15.426Z,99717.55
2019-03-23T22:05:44.953Z,99712.28
2019-03-23T22:08:14.452Z,99714.73
2019-03-23T22:10:43.920Z,99711.52
2019-03-23T22:13:13.421Z,99709.59
2019-03-23T22:15:42.910Z,99708.28
2019-03-23T22:18:12.645Z,99709.16
2019-03-23T22:20:42.202Z,99711.67
2019-03-23T22:23:11.672Z,99711.83
2019-03-23T22:25:41.175Z,99714.19
2019-03-23T22:28:10.665Z,99715.58
2019-03-23T22:30:40.159Z,99707.74
2019-03-23T22:33:10.081Z,99707.80
2019-03-23T22:35:39.853Z,99713.30
2019-03-23T22:38:09.321Z,99709.52
2019-03-23T22:40:39.131Z,99704.32
2019-03-23T22:43:08.683Z,99700.55
2019-03-23T22:45:38.143Z,99699.81
2019-03-23T22:48:07.642Z,99699.97
2019-03-23T22:50:37.150Z,99695.08
2019-03-23T22:53:06.702Z,99688.09
2019-03-23T22:55:36.164Z,99684.03
2019-03-23T22:58:05.769Z,99684.89
2019-03-23T23:00:38.525Z,99685.30
2019-03-23T23:03:08.456Z,99683.67
2019-03-23T23:05:37.917Z,99684.39
2019-03-23T23:08:07.449Z,99676.17
2019-03-23T23:10:37.053Z,99680.65
2019-03-23T23:13:06.581Z,99680.89
2019-03-23T23:15:36.067Z,99677.91
2019-03-23T23:18:05.779Z,99675.05
2019-03-23T23:20:55.127Z,99670.84
2019-03-23T23:23:24.600Z,99668.19
2019-03-23T23:25:54.146Z,99665.19
2019-03-23T23:28:23.642Z,99662.64
2019-03-23T23:30:53.192Z,99658.03
2019-03-23T23:33:22.671Z,99662.70
2019-03-23T23:35:52.158Z,99660.50
2019-03-23T23:38:21.634Z,99658.63
2019-03-23T23:40:51.104Z,99656.77
2019-03-23T23:43:20.579Z,99653.77
2019-03-23T23:45:50.337Z,99656.73
2019-03-23T23:48:19.806Z,99658.64
2019-03-23T23:50:49.338Z,99660.53
2019-03-23T23:53:38.196Z,99662.45
2019-03-23T23:56:07.701Z,99668.22
2019-03-23T23:58:37.511Z,99671.28
